Pays
Station

 

Conditions  météo  pour  Marion Regional  -  Etats-Unis    Etats-Unis

  
10 °C
    
 
 

METAR pour Marion Regional :

KMWA 212245Z 15004KT 20SM SKC 10/M02 A3028

 

Voici le bulletin pour Marion Regional - Etats-Unis.
 
Le bulletin a été fait il y a 17 minutes, à 22:45 UTC .
Le vent soufflait à la vitesse de 2.1 mètres par seconde de Sud/Sud-est (150°).
 
La température était de 10 °C, avec un point de rosée à -2 °C.
La pression atmosphérique était de 1025 hPa.
L'humidité relative était de 43.0%.
 
Le ciel était clair.
 
La visibilité globale était de 32.2 kilomètres.
 

 
 
 

Pays :   A   B   C   D   E   F   G   H   I   J   K   L   M   N   O   P   Q   R   S   T   U   V   W   Y   Z

 

Partenaires :  Info Météo avec Met'info
Météo Marine avec MeteoMarine.net
Infos Site  |  Infos Légales  |  Crédits  |  Confidentialité
Contactez-nous  |  Ajouter aux favoris
© 2013-2018 METAR - Tous droits réservés